Time;durP1;ratioP1;P1;durP2;ratioP2;P2;SDS_P1;SDS_P2;PMS_P1;PMS_P2;Temp;Humidity;BMP_temperature;BMP_pressure;BME280_temperature;BME280_humidity;BME280_pressure;Samples;Min_cycle;Max_cycle;Signal;HPM_P1;HPM_P2
2020/12/06 00:00:19;;;;;;;39.13;20.50;;;;;;;8.96;100.00;95178.75;6161831;23;20502;-87
2020/12/06 00:02:46;;;;;;;34.83;21.40;;;;;;;8.95;100.00;95178.84;6161549;23;20979;-87
2020/12/06 00:05:12;;;;;;;25.63;17.40;;;;;;;8.87;100.00;95184.63;6161132;23;20449;-87
2020/12/06 00:07:40;;;;;;;31.07;20.00;;;;;;;8.85;100.00;95185.69;6160519;23;20544;-87
2020/12/06 00:10:08;;;;;;;36.47;18.83;;;;;;;8.87;100.00;95189.88;6134651;23;20717;-87
2020/12/06 00:12:36;;;;;;;29.17;18.90;;;;;;;8.85;100.00;95186.53;6161119;23;20410;-86
2020/12/06 00:15:06;;;;;;;31.10;16.67;;;;;;;8.84;100.00;95189.25;6161695;23;20413;-86
2020/12/06 00:17:33;;;;;;;27.87;17.23;;;;;;;8.84;100.00;95195.34;6160004;23;20408;-86
2020/12/06 00:20:00;;;;;;;31.17;17.97;;;;;;;8.73;100.00;95189.22;6159680;23;20414;-87
2020/12/06 00:22:27;;;;;;;28.10;18.87;;;;;;;8.76;100.00;95200.28;6158207;23;20941;-86
2020/12/06 00:24:53;;;;;;;27.40;17.03;;;;;;;8.87;100.00;95195.09;6157582;23;20447;-86
2020/12/06 00:27:20;;;;;;;26.37;17.70;;;;;;;8.84;100.00;95190.09;6157193;23;20396;-86
2020/12/06 00:29:47;;;;;;;30.13;19.97;;;;;;;8.96;100.00;95194.44;6157372;23;20475;-86
2020/12/06 00:32:13;;;;;;;26.67;18.47;;;;;;;8.97;100.00;95195.28;6157609;23;20743;-86
2020/12/06 00:34:40;;;;;;;29.70;17.77;;;;;;;9.02;100.00;95195.78;6157391;23;20413;-87
2020/12/06 00:37:07;;;;;;;32.57;19.07;;;;;;;8.97;100.00;95196.13;6162977;23;20406;-86
2020/12/06 00:39:33;;;;;;;28.83;19.80;;;;;;;9.01;100.00;95191.50;6159286;23;20446;-86
2020/12/06 00:42:00;;;;;;;26.20;18.00;;;;;;;8.89;100.00;95193.22;6157817;23;20420;-86
2020/12/06 00:44:26;;;;;;;32.47;18.10;;;;;;;8.83;100.00;95192.81;6165867;23;20421;-85
2020/12/06 00:46:59;;;;;;;30.53;19.00;;;;;;;8.84;100.00;95197.13;6171760;23;20401;-87
2020/12/06 00:49:26;;;;;;;27.73;18.83;;;;;;;8.65;100.00;95187.97;6160353;23;20451;-86
2020/12/06 00:51:52;;;;;;;27.87;16.57;;;;;;;8.68;100.00;95190.41;6157585;23;20759;-86
2020/12/06 00:54:19;;;;;;;24.57;17.00;;;;;;;8.60;100.00;95181.41;6157323;23;21000;-86
2020/12/06 00:56:45;;;;;;;24.33;17.10;;;;;;;8.80;100.00;95193.06;6157263;23;20429;-86
2020/12/06 00:59:11;;;;;;;27.37;15.77;;;;;;;8.83;100.00;95187.59;6156887;23;20460;-86
2020/12/06 01:01:40;;;;;;;27.90;15.23;;;;;;;8.83;100.00;95184.97;6158354;23;20456;-87
2020/12/06 01:04:08;;;;;;;30.00;18.80;;;;;;;8.64;100.00;95177.63;6159157;23;20437;-86
2020/12/06 01:06:35;;;;;;;24.33;16.10;;;;;;;8.76;100.00;95181.16;6158186;23;20485;-85
2020/12/06 01:09:02;;;;;;;28.40;15.40;;;;;;;8.80;100.00;95180.81;6159287;23;20520;-87
2020/12/06 01:11:28;;;;;;;24.53;15.90;;;;;;;8.73;100.00;95181.38;6158178;23;20409;-86
2020/12/06 01:13:55;;;;;;;28.03;16.57;;;;;;;8.81;100.00;95179.03;6157138;23;20413;-87
2020/12/06 01:16:21;;;;;;;21.40;14.17;;;;;;;8.79;100.00;95173.06;6157708;23;20398;-87
2020/12/06 01:18:48;;;;;;;23.77;12.53;;;;;;;8.73;100.00;95176.97;6157251;23;20471;-86
2020/12/06 01:21:16;;;;;;;20.93;13.73;;;;;;;8.77;100.00;95177.59;6157271;23;20417;-86
2020/12/06 01:23:42;;;;;;;19.83;13.97;;;;;;;8.79;100.00;95176.53;6157655;23;20413;-86
2020/12/06 01:26:10;;;;;;;22.23;13.73;;;;;;;8.81;100.00;95171.19;6157545;23;20407;-86
2020/12/06 01:28:37;;;;;;;24.67;14.57;;;;;;;8.79;100.00;95166.06;6157147;23;20447;-86
2020/12/06 01:31:03;;;;;;;20.40;14.10;;;;;;;8.82;100.00;95175.47;6157201;23;20412;-86
2020/12/06 01:33:30;;;;;;;27.37;16.07;;;;;;;8.80;100.00;95169.50;6159490;23;20723;-86
2020/12/06 01:35:56;;;;;;;23.90;15.40;;;;;;;8.78;100.00;95179.25;6165708;23;20428;-87
2020/12/06 01:38:24;;;;;;;26.43;17.20;;;;;;;8.84;100.00;95170.94;6165194;23;20522;-86
2020/12/06 01:40:51;;;;;;;19.87;14.47;;;;;;;8.90;100.00;95173.09;6167194;23;20422;-86
2020/12/06 01:43:17;;;;;;;24.60;15.03;;;;;;;8.87;100.00;95165.47;6157621;23;20939;-86
2020/12/06 01:45:44;;;;;;;27.07;17.03;;;;;;;8.86;100.00;95174.28;6157909;23;20487;-86
2020/12/06 01:48:10;;;;;;;29.63;17.53;;;;;;;8.85;100.00;95173.44;6157430;23;20754;-86
2020/12/06 01:50:38;;;;;;;26.60;15.20;;;;;;;8.85;100.00;95170.00;6157158;23;20415;-88
2020/12/06 01:53:06;;;;;;;25.50;15.33;;;;;;;8.79;100.00;95173.06;6156781;23;20500;-87
2020/12/06 01:55:34;;;;;;;20.83;14.00;;;;;;;8.85;100.00;95159.53;6157413;23;20403;-87
2020/12/06 01:58:02;;;;;;;18.83;14.00;;;;;;;8.78;100.00;95156.53;6157140;23;20405;-86
2020/12/06 02:00:29;;;;;;;20.10;14.17;;;;;;;8.79;100.00;95152.13;6157170;23;20782;-86
2020/12/06 02:02:56;;;;;;;22.70;14.30;;;;;;;8.76;100.00;95161.06;6156911;23;20409;-87
2020/12/06 02:05:22;;;;;;;17.97;13.33;;;;;;;8.72;100.00;95151.75;6157193;23;20437;-87
2020/12/06 02:07:49;;;;;;;18.20;13.67;;;;;;;8.69;100.00;95146.75;6157959;23;20798;-87
2020/12/06 02:10:16;;;;;;;21.90;14.37;;;;;;;8.73;100.00;95144.75;6158398;23;20395;-86
2020/12/06 02:12:47;;;;;;;18.83;13.77;;;;;;;8.71;100.00;95141.41;6158829;23;20406;-87
2020/12/06 02:15:14;;;;;;;20.20;12.20;;;;;;;8.67;100.00;95149.50;6158523;23;20385;-87
2020/12/06 02:17:40;;;;;;;17.17;12.43;;;;;;;8.62;100.00;95140.28;6158606;23;20401;-87
2020/12/06 02:20:08;;;;;;;24.67;14.00;;;;;;;8.71;100.00;95144.03;6158897;23;20407;-86
2020/12/06 02:22:34;;;;;;;19.80;13.20;;;;;;;8.82;100.00;95151.91;6158527;23;20476;-86
2020/12/06 02:25:01;;;;;;;24.37;14.73;;;;;;;8.85;100.00;95159.53;6158785;23;20430;-86
2020/12/06 02:27:27;;;;;;;23.17;15.70;;;;;;;8.85;100.00;95152.50;6158682;23;20416;-86
2020/12/06 02:29:54;;;;;;;24.60;15.80;;;;;;;8.82;100.00;95154.53;6158572;23;20452;-86
2020/12/06 02:32:20;;;;;;;22.53;14.83;;;;;;;8.79;100.00;95160.81;6158872;23;20437;-86
2020/12/06 02:34:47;;;;;;;21.27;15.40;;;;;;;8.77;100.00;95152.25;6158763;23;20455;-87
2020/12/06 02:37:14;;;;;;;25.20;16.20;;;;;;;8.80;100.00;95152.03;6158564;23;20861;-87
2020/12/06 02:39:41;;;;;;;26.80;15.83;;;;;;;8.57;100.00;95150.25;6159141;23;20919;-87
2020/12/06 02:42:08;;;;;;;24.93;17.30;;;;;;;8.67;100.00;95148.63;6158563;23;20410;-87
2020/12/06 02:44:34;;;;;;;25.27;18.13;;;;;;;8.64;100.00;95146.22;6158686;23;20453;-87
2020/12/06 02:47:01;;;;;;;29.53;18.27;;;;;;;8.58;100.00;95144.91;6158728;23;20404;-86
2020/12/06 02:49:28;;;;;;;32.97;17.60;;;;;;;8.60;100.00;95144.78;6158312;23;20445;-87
2020/12/06 02:51:54;;;;;;;25.07;16.67;;;;;;;8.50;100.00;95142.03;6158572;23;20485;-86
2020/12/06 02:54:22;;;;;;;33.17;18.57;;;;;;;8.42;100.00;95130.47;6158086;23;20514;-87
2020/12/06 02:56:48;;;;;;;29.23;17.70;;;;;;;8.43;100.00;95140.81;6158578;23;20521;-87
2020/12/06 02:59:14;;;;;;;28.80;18.07;;;;;;;8.45;100.00;95131.06;6158609;23;20405;-86
2020/12/06 03:01:41;;;;;;;25.80;17.80;;;;;;;8.55;100.00;95133.84;6158270;23;20412;-86
2020/12/06 03:04:07;;;;;;;28.10;17.90;;;;;;;8.54;100.00;95140.00;6158410;23;20412;-86
2020/12/06 03:06:34;;;;;;;27.10;17.57;;;;;;;8.53;100.00;95141.78;6158242;23;20460;-86
2020/12/06 03:09:00;;;;;;;24.53;16.50;;;;;;;8.60;100.00;95137.78;6158015;23;20446;-86
2020/12/06 03:11:28;;;;;;;26.73;16.60;;;;;;;8.65;100.00;95143.50;6158181;23;20505;-86
2020/12/06 03:13:54;;;;;;;28.13;16.83;;;;;;;8.65;100.00;95138.28;6158894;23;20487;-86
2020/12/06 03:16:21;;;;;;;28.33;16.73;;;;;;;8.70;100.00;95135.34;6158510;23;20404;-87
2020/12/06 03:18:47;;;;;;;34.43;21.83;;;;;;;8.73;100.00;95136.91;6158350;23;20436;-86
2020/12/06 03:21:14;;;;;;;26.67;18.43;;;;;;;8.78;100.00;95133.00;6157796;23;20480;-87
2020/12/06 03:23:40;;;;;;;30.47;14.77;;;;;;;8.81;100.00;95143.22;6158078;23;20730;-86
2020/12/06 03:26:07;;;;;;;23.57;17.40;;;;;;;8.79;100.00;95139.91;6157849;23;20469;-86
2020/12/06 03:28:34;;;;;;;24.07;14.80;;;;;;;8.90;100.00;95139.09;6157718;23;20472;-86
2020/12/06 03:31:01;;;;;;;26.23;13.70;;;;;;;8.96;100.00;95133.38;6158356;23;20411;-86
2020/12/06 03:33:27;;;;;;;22.93;15.70;;;;;;;8.92;100.00;95131.94;6158110;23;20433;-86
2020/12/06 03:35:54;;;;;;;24.00;16.70;;;;;;;8.96;100.00;95128.16;6157794;23;20402;-86
2020/12/06 03:38:20;;;;;;;22.60;14.43;;;;;;;8.97;100.00;95135.91;6158014;23;20437;-86
2020/12/06 03:40:47;;;;;;;20.67;13.93;;;;;;;8.96;100.00;95121.16;6158098;23;20513;-86
2020/12/06 03:43:13;;;;;;;22.97;11.50;;;;;;;8.82;100.00;95129.19;6158129;23;20483;-88
2020/12/06 03:45:41;;;;;;;21.10;13.30;;;;;;;8.84;100.00;95129.06;6158280;23;20473;-87
2020/12/06 03:48:07;;;;;;;29.70;15.80;;;;;;;8.74;100.00;95134.16;6157977;23;20441;-86
2020/12/06 03:50:33;;;;;;;23.63;15.13;;;;;;;8.67;100.00;95131.19;6158226;23;20409;-87
2020/12/06 03:53:00;;;;;;;22.03;15.33;;;;;;;8.67;100.00;95136.41;6158079;23;20417;-86
2020/12/06 03:55:26;;;;;;;19.97;15.90;;;;;;;8.62;100.00;95138.50;6159114;23;20397;-86
2020/12/06 03:57:53;;;;;;;23.37;13.10;;;;;;;8.80;100.00;95135.50;6158280;23;20397;-86
2020/12/06 04:00:21;;;;;;;21.97;14.90;;;;;;;8.69;100.00;95134.50;6157892;23;20469;-86
2020/12/06 04:02:50;;;;;;;22.73;13.87;;;;;;;8.62;100.00;95135.06;6157656;23;20410;-86
2020/12/06 04:05:20;;;;;;;19.53;14.37;;;;;;;8.56;100.00;95132.88;6158191;23;20418;-86
2020/12/06 04:07:47;;;;;;;21.73;14.90;;;;;;;8.49;100.00;95140.34;6158289;23;20413;-87
2020/12/06 04:10:14;;;;;;;20.30;13.73;;;;;;;8.55;100.00;95137.28;6158341;23;20418;-86
2020/12/06 04:12:40;;;;;;;26.07;17.67;;;;;;;8.43;100.00;95130.34;6158983;23;20415;-86
2020/12/06 04:15:07;;;;;;;27.57;17.17;;;;;;;8.54;100.00;95140.00;6158050;23;20736;-86
2020/12/06 04:17:34;;;;;;;27.33;14.43;;;;;;;8.58;100.00;95131.81;6158458;23;20964;-87
2020/12/06 04:20:02;;;;;;;22.63;14.27;;;;;;;8.61;100.00;95139.44;6158372;23;20408;-86
2020/12/06 04:22:28;;;;;;;15.80;12.67;;;;;;;8.45;100.00;95127.63;6157511;23;20473;-86
2020/12/06 04:24:54;;;;;;;21.67;12.73;;;;;;;8.46;100.00;95137.13;6157523;23;20419;-87
2020/12/06 04:27:21;;;;;;;20.63;13.87;;;;;;;8.58;100.00;95131.00;6157634;23;20423;-86
2020/12/06 04:29:47;;;;;;;19.37;13.17;;;;;;;8.61;100.00;95125.53;6157630;23;20437;-87
2020/12/06 04:32:14;;;;;;;17.83;13.40;;;;;;;8.59;100.00;95133.50;6157462;23;20409;-88
2020/12/06 04:34:40;;;;;;;16.97;12.93;;;;;;;8.63;100.00;95134.09;6157158;23;20401;-87
2020/12/06 04:37:08;;;;;;;24.03;14.60;;;;;;;8.64;100.00;95125.31;6157053;23;20492;-86
2020/12/06 04:39:34;;;;;;;20.43;10.93;;;;;;;8.52;100.00;95127.06;6157277;23;20967;-86
2020/12/06 04:42:01;;;;;;;17.53;12.43;;;;;;;8.65;100.00;95126.97;6157255;23;20997;-86
2020/12/06 04:44:28;;;;;;;18.73;13.40;;;;;;;8.62;100.00;95127.22;6157465;23;20726;-87
2020/12/06 04:47:00;;;;;;;19.00;13.63;;;;;;;8.64;100.00;95117.47;6157975;23;20914;-86
2020/12/06 04:49:42;;;;;;;20.10;12.10;;;;;;;8.73;100.00;95122.03;6157398;23;20447;-86
2020/12/06 04:52:14;;;;;;;13.97;10.80;;;;;;;8.80;100.00;95130.25;6157265;23;20432;-87
2020/12/06 04:54:42;;;;;;;18.50;12.77;;;;;;;8.95;100.00;95131.72;6158027;23;20469;-86
2020/12/06 04:57:10;;;;;;;17.47;11.57;;;;;;;9.02;100.00;95130.34;6157502;23;20461;-87
2020/12/06 04:59:42;;;;;;;18.33;9.83;;;;;;;8.91;100.00;95132.91;6157356;23;20398;-87
2020/12/06 05:02:11;;;;;;;12.50;11.20;;;;;;;8.94;100.00;95143.13;6158097;23;20771;-87
2020/12/06 05:04:43;;;;;;;13.57;10.40;;;;;;;8.85;100.00;95135.97;6157372;23;20399;-87
2020/12/06 05:07:10;;;;;;;12.53;9.40;;;;;;;8.86;100.00;95141.09;6157545;23;20404;-86
2020/12/06 05:09:38;;;;;;;14.07;9.47;;;;;;;8.86;100.00;95143.72;6157457;23;20833;-88
2020/12/06 05:12:05;;;;;;;11.00;9.80;;;;;;;8.70;100.00;95140.56;6159050;23;20394;-89
2020/12/06 05:14:32;;;;;;;11.70;9.97;;;;;;;8.61;100.00;95144.69;6158776;23;20513;-89
2020/12/06 05:16:59;;;;;;;16.87;9.90;;;;;;;8.68;100.00;95143.31;6157454;23;20441;-87
2020/12/06 05:19:29;;;;;;;11.43;10.00;;;;;;;8.64;100.00;95146.22;6159823;23;20434;-84
2020/12/06 05:21:55;;;;;;;15.70;10.53;;;;;;;8.68;100.00;95147.72;6159935;23;20409;-84
2020/12/06 05:24:23;;;;;;;16.58;11.50;;;;;;;8.72;100.00;95154.38;6155890;23;20460;-84
2020/12/06 05:26:50;;;;;;;14.23;10.80;;;;;;;8.75;100.00;95155.94;6157456;23;20179;-84
2020/12/06 05:29:17;;;;;;;16.27;10.47;;;;;;;8.76;100.00;95149.75;6157489;23;20438;-85
2020/12/06 05:31:44;;;;;;;14.70;11.80;;;;;;;8.77;100.00;95151.41;6157404;23;20406;-87
2020/12/06 05:34:10;;;;;;;14.27;10.63;;;;;;;8.76;100.00;95161.06;6158428;23;20404;-91
2020/12/06 05:36:42;;;;;;;16.73;13.53;;;;;;;8.75;100.00;95150.69;6157393;23;20492;-87
2020/12/06 05:39:09;;;;;;;18.13;12.60;;;;;;;8.51;100.00;95151.53;6158441;23;20942;-91
2020/12/06 05:41:36;;;;;;;32.23;18.50;;;;;;;8.67;100.00;95151.25;6159774;23;20416;-91
2020/12/06 05:44:04;;;;;;;28.10;14.57;;;;;;;8.55;100.00;95152.97;6158386;23;20438;-88
2020/12/06 05:46:34;;;;;;;20.77;14.10;;;;;;;8.60;100.00;95148.25;6157835;23;20463;-90
2020/12/06 05:49:04;;;;;;;29.13;16.40;;;;;;;8.64;100.00;95161.94;6158827;23;20437;-87
2020/12/06 05:51:31;;;;;;;18.50;13.87;;;;;;;8.57;100.00;95166.78;6159065;23;20455;-88
2020/12/06 05:53:59;;;;;;;27.47;18.70;;;;;;;8.58;100.00;95167.63;6157362;23;20792;-88
2020/12/06 05:56:26;;;;;;;26.50;18.07;;;;;;;8.57;100.00;95179.84;6157006;23;20416;-88
2020/12/06 05:58:54;;;;;;;17.90;14.43;;;;;;;8.50;100.00;95172.56;6156941;23;20417;-88
2020/12/06 06:01:21;;;;;;;28.47;17.37;;;;;;;8.55;100.00;95175.69;6157222;23;20447;-88
2020/12/06 06:03:49;;;;;;;25.30;15.70;;;;;;;8.42;100.00;95175.75;6158023;23;20430;-88
2020/12/06 06:06:24;;;;;;;35.27;22.50;;;;;;;8.52;100.00;95174.13;6159343;23;20394;-88
2020/12/06 06:08:52;;;;;;;24.80;15.10;;;;;;;8.46;100.00;95182.41;6159103;23;20449;-87
2020/12/06 06:11:27;;;;;;;21.73;16.33;;;;;;;8.57;100.00;95179.84;6159311;23;20807;-87
2020/12/06 06:13:59;;;;;;;38.87;22.87;;;;;;;8.58;100.00;95181.53;6159187;23;20396;-88
2020/12/06 06:16:27;;;;;;;21.00;13.00;;;;;;;8.61;100.00;95183.91;6158575;23;20389;-88
2020/12/06 06:18:54;;;;;;;22.37;15.00;;;;;;;8.74;100.00;95189.13;6158663;23;20409;-87
2020/12/06 06:21:25;;;;;;;29.67;18.27;;;;;;;8.59;100.00;95198.06;6158678;23;20413;-88
2020/12/06 06:23:52;;;;;;;36.10;21.40;;;;;;;8.65;100.00;95187.97;6158678;23;20493;-88
2020/12/06 06:26:22;;;;;;;31.60;20.95;;;;;;;8.81;100.00;95189.50;6157582;23;20411;-87
2020/12/06 06:28:54;;;;;;;17.77;12.27;;;;;;;8.82;100.00;95201.63;6159049;23;20543;-88
2020/12/06 06:31:28;;;;;;;37.23;21.17;;;;;;;8.97;100.00;95184.81;6159541;23;20408;-88
2020/12/06 06:33:55;;;;;;;70.43;39.47;;;;;;;9.03;100.00;95186.13;6159057;23;20395;-88
2020/12/06 06:36:24;;;;;;;52.33;32.33;;;;;;;9.19;100.00;95194.50;6158924;23;20412;-87
2020/12/06 06:38:52;;;;;;;31.27;15.33;;;;;;;9.19;100.00;95194.50;6159131;23;20433;-88
2020/12/06 06:41:18;;;;;;;25.40;12.17;;;;;;;9.11;100.00;95192.47;6158889;23;20453;-88
2020/12/06 06:43:46;;;;;;;18.63;10.27;;;;;;;9.05;100.00;95192.94;6159693;23;20738;-88
2020/12/06 06:46:17;;;;;;;24.23;15.30;;;;;;;8.99;100.00;95191.59;6159271;23;20411;-89
2020/12/06 06:48:50;;;;;;;33.33;18.20;;;;;;;9.07;100.00;95192.81;6160702;23;20436;-88
2020/12/06 06:51:21;;;;;;;23.93;12.63;;;;;;;9.12;100.00;95194.13;6160511;23;20448;-89
2020/12/06 06:53:55;;;;;;;28.60;18.13;;;;;;;9.17;100.00;95193.78;6160176;23;20472;-88
2020/12/06 06:56:22;;;;;;;17.43;11.93;;;;;;;8.99;100.00;95194.22;6160046;23;20393;-89
2020/12/06 06:58:50;;;;;;;18.20;12.70;;;;;;;8.89;100.00;95195.81;6159061;23;20409;-88
2020/12/06 07:01:21;;;;;;;19.27;12.70;;;;;;;9.00;100.00;95200.28;6159436;23;20440;-87
2020/12/06 07:03:50;;;;;;;17.50;11.03;;;;;;;9.12;100.00;95199.38;6158552;23;20673;-85
2020/12/06 07:06:45;;;;;;;12.60;9.20;;;;;;;9.17;100.00;95201.66;6157841;23;20415;-88
2020/12/06 07:09:12;;;;;;;15.40;10.90;;;;;;;9.00;100.00;95192.44;6158367;23;20444;-86
2020/12/06 07:11:39;;;;;;;15.97;9.43;;;;;;;9.11;100.00;95202.94;6161971;23;20409;-89
2020/12/06 07:14:06;;;;;;;12.67;9.90;;;;;;;9.13;100.00;95195.81;6164011;23;20420;-90
2020/12/06 07:16:36;;;;;;;10.40;8.87;;;;;;;9.26;100.00;95196.56;6162059;23;20426;-86
2020/12/06 07:19:03;;;;;;;13.77;9.00;;;;;;;9.35;100.00;95196.84;6161045;23;20416;-88
2020/12/06 07:21:34;;;;;;;14.60;9.53;;;;;;;9.36;100.00;95195.88;6161642;23;20418;-89
2020/12/06 07:24:01;;;;;;;20.10;9.43;;;;;;;9.29;100.00;95190.28;6175918;23;20391;-87
2020/12/06 07:26:28;;;;;;;14.60;9.80;;;;;;;9.33;100.00;95194.31;6176565;23;20472;-87
2020/12/06 07:28:55;;;;;;;12.57;10.23;;;;;;;9.41;100.00;95193.75;6177009;23;20452;-88
2020/12/06 07:31:23;;;;;;;13.30;9.40;;;;;;;9.56;100.00;95193.44;6174072;23;20767;-87
2020/12/06 07:33:50;;;;;;;12.53;9.53;;;;;;;9.59;100.00;95184.50;6166697;23;20418;-87
2020/12/06 07:36:18;;;;;;;13.10;9.90;;;;;;;9.70;100.00;95189.75;6164648;23;20493;-89
2020/12/06 07:38:45;;;;;;;14.13;9.43;;;;;;;9.66;100.00;95195.34;6162933;23;20947;-88
2020/12/06 07:41:13;;;;;;;16.73;10.73;;;;;;;9.65;100.00;95189.28;6164603;23;20420;-89
2020/12/06 07:43:41;;;;;;;12.77;9.97;;;;;;;9.61;99.97;95190.47;6164134;23;20398;-89
2020/12/06 07:46:18;;;;;;;15.23;10.73;;;;;;;9.42;100.00;95198.03;6161441;23;20439;-88
2020/12/06 07:48:45;;;;;;;12.53;10.83;;;;;;;9.10;100.00;95196.03;6161846;23;20479;-87
2020/12/06 07:51:26;;;;;;;15.40;12.97;;;;;;;9.05;100.00;95185.06;6158550;23;20459;-89
2020/12/06 07:53:54;;;;;;;20.20;14.73;;;;;;;9.00;100.00;95190.66;6158915;23;20415;-87
2020/12/06 07:56:22;;;;;;;21.40;12.93;;;;;;;8.92;100.00;95192.97;6158125;23;20718;-87
2020/12/06 07:59:17;;;;;;;16.07;12.67;;;;;;;8.83;100.00;95185.81;6158021;23;21007;-88
2020/12/06 08:01:46;;;;;;;21.50;16.50;;;;;;;8.86;100.00;95190.81;6158455;23;20396;-90
2020/12/06 08:04:15;;;;;;;17.73;12.87;;;;;;;8.91;100.00;95199.16;6158054;23;20472;-92
2020/12/06 08:06:46;;;;;;;16.00;13.30;;;;;;;8.83;100.00;95198.06;6132472;23;20406;-89
2020/12/06 08:09:14;;;;;;;22.77;17.03;;;;;;;8.89;100.00;95192.38;6162722;23;20461;-95
2020/12/06 08:11:46;;;;;;;26.23;15.13;;;;;;;8.95;100.00;95187.50;6160681;23;20433;-93
2020/12/06 08:14:19;;;;;;;17.67;13.27;;;;;;;8.96;100.00;95181.38;6160153;23;20393;-89
2020/12/06 08:16:58;;;;;;;19.43;14.27;;;;;;;8.95;100.00;95181.44;6158952;23;20408;-89
2020/12/06 08:19:25;;;;;;;18.77;12.60;;;;;;;8.97;100.00;95183.03;6159209;23;20412;-90
2020/12/06 08:21:59;;;;;;;21.20;14.20;;;;;;;9.07;100.00;95185.78;6132825;23;20428;-91
2020/12/06 08:24:29;;;;;;;20.30;13.10;;;;;;;9.02;100.00;95180.06;6160674;23;20442;-92
2020/12/06 08:26:58;;;;;;;14.33;11.37;;;;;;;9.15;100.00;95178.19;6158863;23;20492;-89
2020/12/06 08:29:39;;;;;;;19.00;11.77;;;;;;;9.12;100.00;95169.75;6131412;23;20497;-86
2020/12/06 08:32:06;;;;;;;23.00;11.47;;;;;;;9.20;100.00;95170.81;6163308;23;20413;-96
2020/12/06 08:34:33;;;;;;;20.60;13.37;;;;;;;8.99;100.00;95162.81;6159789;23;20430;-91
2020/12/06 08:37:15;;;;;;;23.50;15.87;;;;;;;9.09;100.00;95164.75;6132936;23;20440;-88
2020/12/06 08:39:42;;;;;;;21.83;15.30;;;;;;;9.19;100.00;95169.16;6158772;23;20434;-89
2020/12/06 08:42:19;;;;;;;30.07;18.20;;;;;;;9.24;100.00;95171.44;6159207;23;20874;-89
2020/12/06 08:44:54;;;;;;;23.57;15.20;;;;;;;9.36;100.00;95174.94;6159797;23;20410;-93
2020/12/06 08:47:21;;;;;;;28.97;20.57;;;;;;;9.27;100.00;95168.59;6159012;23;20478;-85
2020/12/06 08:49:48;;;;;;;24.27;17.00;;;;;;;9.30;100.00;95168.38;6158591;23;20466;-90
2020/12/06 08:52:22;;;;;;;21.50;16.17;;;;;;;9.17;100.00;95162.38;6159620;23;20418;-92
2020/12/06 08:54:50;;;;;;;22.77;15.53;;;;;;;9.31;100.00;95168.25;6160166;23;20435;-95
2020/12/06 08:57:19;;;;;;;22.77;15.03;;;;;;;9.24;100.00;95158.34;6166502;23;20461;-91
2020/12/06 08:59:45;;;;;;;18.73;12.50;;;;;;;9.19;100.00;95150.84;6179154;23;20410;-89
2020/12/06 09:02:22;;;;;;;28.47;17.23;;;;;;;9.24;100.00;95159.16;6180035;23;20385;-91
2020/12/06 09:04:48;;;;;;;30.17;18.00;;;;;;;9.35;100.00;95163.63;6183747;23;20381;-94
2020/12/06 09:07:15;;;;;;;22.77;17.80;;;;;;;9.36;100.00;95153.97;6167874;23;20433;-95
2020/12/06 09:09:43;;;;;;;35.97;26.67;;;;;;;9.30;100.00;95148.25;6159654;23;20453;-96
2020/12/06 09:12:09;;;;;;;23.50;18.33;;;;;;;9.41;100.00;95149.22;6161038;23;20426;-95
2020/12/06 09:14:37;;;;;;;32.73;21.17;;;;;;;9.39;100.00;95136.25;6160703;23;20735;-95
2020/12/06 09:17:04;;;;;;;30.47;24.90;;;;;;;9.43;100.00;95145.53;6159008;23;20434;-96
2020/12/06 09:19:30;;;;;;;30.00;21.93;;;;;;;9.41;100.00;95139.56;6159851;23;20414;-96
2020/12/06 09:21:56;;;;;;;23.27;18.40;;;;;;;9.45;100.00;95143.63;6159495;23;20418;-94
2020/12/06 09:24:23;;;;;;;23.42;15.35;;;;;;;9.54;100.00;95137.72;6159867;23;20763;-91
2020/12/06 09:26:51;;;;;;;22.20;15.10;;;;;;;9.53;100.00;95128.16;6167434;23;20207;-91
2020/12/06 09:29:17;;;;;;;20.77;14.27;;;;;;;9.55;100.00;95130.69;6159486;23;20473;-93
2020/12/06 09:31:44;;;;;;;24.70;13.50;;;;;;;9.56;100.00;95127.94;6161940;23;20439;-96
2020/12/06 09:34:11;;;;;;;23.70;14.93;;;;;;;9.41;100.00;95109.94;6161989;23;20423;-96
2020/12/06 09:36:42;;;;;;;29.63;20.40;;;;;;;9.27;100.00;95124.09;6159004;23;20411;-96
2020/12/06 09:39:09;;;;;;;24.33;17.20;;;;;;;9.20;100.00;95113.22;6159691;23;20432;-96
2020/12/06 09:41:38;;;;;;;29.87;18.30;;;;;;;9.23;100.00;95118.22;6160257;23;20404;-96
2020/12/06 09:44:07;;;;;;;31.33;22.43;;;;;;;9.32;100.00;95117.56;6160334;23;20892;-96
2020/12/06 09:46:34;;;;;;;25.83;18.10;;;;;;;9.43;100.00;95115.88;6159504;23;20411;-94
2020/12/06 09:49:01;;;;;;;27.67;19.33;;;;;;;9.40;100.00;95108.28;6159252;23;20449;-95
2020/12/06 09:51:27;;;;;;;76.00;39.17;;;;;;;11.27;100.00;95118.56;6158202;23;20411;-87
2020/12/06 09:53:54;;;;;;;32.00;25.00;;;;;;;12.41;100.00;95112.16;6174582;23;20408;-93
2020/12/06 09:56:26;;;;;;;25.30;18.57;;;;;;;11.44;100.00;95107.47;6177845;23;20411;-93
2020/12/06 09:58:53;;;;;;;30.27;20.73;;;;;;;10.66;100.00;95100.00;6178235;23;20396;-92
2020/12/06 10:01:20;;;;;;;28.50;16.87;;;;;;;10.46;100.00;95099.84;6173294;23;20408;-95
2020/12/06 10:03:47;;;;;;;35.80;21.60;;;;;;;10.16;100.00;95095.25;6174015;23;20408;-87
2020/12/06 10:06:22;;;;;;;31.95;20.48;;;;;;;10.01;100.00;95085.13;6176167;23;20402;-93
2020/12/06 10:08:48;;;;;;;40.20;26.13;;;;;;;9.79;100.00;95092.06;6172991;23;20186;-94
2020/12/06 10:12:21;;;;;;;41.27;21.77;;;;;;;9.72;100.00;95083.03;6176242;23;20414;-96
2020/12/06 10:14:48;;;;;;;46.17;27.03;;;;;;;9.50;100.00;95080.41;6089286;23;20422;-93
2020/12/06 10:17:17;;;;;;;39.13;23.07;;;;;;;9.41;100.00;95070.66;6090312;23;20447;-95
2020/12/06 10:19:46;;;;;;;35.00;21.97;;;;;;;9.39;100.00;95069.94;6139579;23;20423;-95
2020/12/06 10:25:39;;;;;;;43.73;24.70;;;;;;;9.27;100.00;95056.84;6172399;23;20388;-96
2020/12/06 10:28:06;;;;;;;44.03;26.20;;;;;;;9.28;100.00;95058.50;6172893;23;20445;-95
2020/12/06 10:30:32;;;;;;;45.43;26.07;;;;;;;9.29;100.00;95049.72;6162686;23;20465;-94
2020/12/06 10:32:59;;;;;;;54.00;34.40;;;;;;;9.12;100.00;95047.53;6161894;23;20501;-94
2020/12/06 10:38:26;;;;;;;45.03;24.70;;;;;;;9.15;100.00;95047.31;5138610;27;2162602;-95
2020/12/06 10:40:53;;;;;;;37.33;22.13;;;;;;;9.20;100.00;95045.16;5192060;27;20454;-96
2020/12/06 10:43:20;;;;;;;64.20;38.70;;;;;;;9.12;100.00;95036.22;5190055;27;20440;-96
2020/12/06 10:45:47;;;;;;;46.03;26.40;;;;;;;9.23;100.00;95039.69;5186306;27;20447;-93
2020/12/06 10:48:13;;;;;;;38.03;24.00;;;;;;;9.37;100.00;95041.25;5182333;27;20423;-88
2020/12/06 10:50:40;;;;;;;47.77;26.57;;;;;;;9.49;100.00;95028.97;5169523;27;20455;-93
2020/12/06 10:53:07;;;;;;;37.23;23.27;;;;;;;9.56;100.00;95035.41;5166417;27;20455;-90
2020/12/06 10:55:37;;;;;;;28.70;17.27;;;;;;;9.50;100.00;95035.88;5166595;27;20435;-95
2020/12/06 10:58:04;;;;;;;32.63;19.60;;;;;;;9.52;100.00;95028.72;5164756;27;20496;-95
2020/12/06 11:00:31;;;;;;;35.47;21.37;;;;;;;9.61;100.00;95028.03;5162652;27;20443;-95
2020/12/06 11:02:58;;;;;;;35.83;21.03;;;;;;;9.56;100.00;95025.78;5156387;27;20466;-94
2020/12/06 11:05:24;;;;;;;31.63;21.43;;;;;;;9.52;100.00;95031.34;5138064;27;20925;-89
2020/12/06 11:07:51;;;;;;;41.30;25.00;;;;;;;9.57;100.00;95029.22;5154209;27;20451;-95
2020/12/06 11:10:18;;;;;;;38.70;22.70;;;;;;;9.59;100.00;95027.31;5153978;27;20585;-89
2020/12/06 11:12:46;;;;;;;50.10;23.57;;;;;;;9.68;100.00;95028.38;5136090;27;20895;-88
2020/12/06 11:15:13;;;;;;;40.93;25.03;;;;;;;9.76;100.00;95018.94;5154282;27;20473;-89
2020/12/06 11:17:39;;;;;;;27.10;14.83;;;;;;;9.35;100.00;95018.75;5138870;27;20482;-90
2020/12/06 11:20:06;;;;;;;32.93;21.60;;;;;;;9.32;100.00;95018.03;5154509;27;20489;-95
2020/12/06 11:22:41;;;;;;;27.60;18.23;;;;;;;9.30;100.00;95003.41;5161711;27;20455;-88
2020/12/06 11:25:08;;;;;;;36.83;25.60;;;;;;;9.17;100.00;95005.28;5153301;27;20475;-92
2020/12/06 11:27:34;;;;;;;47.27;29.63;;;;;;;9.25;100.00;95001.16;5154840;27;20454;-89